sensor_id;sensor_type;location;lat;lon;timestamp;temperature;humidity
41628;DHT22;27321;50.816;6.054;2023-07-24T00:00:48;20.00;79.60
41628;DHT22;27321;50.816;6.054;2023-07-24T00:03:49;20.10;79.70
41628;DHT22;27321;50.816;6.054;2023-07-24T00:06:50;20.00;79.80
41628;DHT22;27321;50.816;6.054;2023-07-24T00:09:51;20.00;79.60
41628;DHT22;27321;50.816;6.054;2023-07-24T00:12:53;20.00;79.70
41628;DHT22;27321;50.816;6.054;2023-07-24T00:15:54;20.00;79.50
41628;DHT22;27321;50.816;6.054;2023-07-24T00:18:55;20.00;79.30
41628;DHT22;27321;50.816;6.054;2023-07-24T00:21:56;19.90;79.30
41628;DHT22;27321;50.816;6.054;2023-07-24T00:24:57;19.90;79.20
41628;DHT22;27321;50.816;6.054;2023-07-24T00:27:58;19.90;79.00
41628;DHT22;27321;50.816;6.054;2023-07-24T00:30:59;19.80;79.00
41628;DHT22;27321;50.816;6.054;2023-07-24T00:34:01;19.80;79.00
41628;DHT22;27321;50.816;6.054;2023-07-24T00:37:02;19.70;79.00
41628;DHT22;27321;50.816;6.054;2023-07-24T00:40:03;19.70;79.00
41628;DHT22;27321;50.816;6.054;2023-07-24T00:43:05;19.80;79.10
41628;DHT22;27321;50.816;6.054;2023-07-24T00:46:06;19.60;79.10
41628;DHT22;27321;50.816;6.054;2023-07-24T00:49:07;19.60;79.10
41628;DHT22;27321;50.816;6.054;2023-07-24T00:52:08;19.60;79.00
41628;DHT22;27321;50.816;6.054;2023-07-24T00:55:11;19.60;79.00
41628;DHT22;27321;50.816;6.054;2023-07-24T00:58:16;19.60;78.90
41628;DHT22;27321;50.816;6.054;2023-07-24T01:01:18;19.60;78.90
41628;DHT22;27321;50.816;6.054;2023-07-24T01:04:20;19.60;79.00
41628;DHT22;27321;50.816;6.054;2023-07-24T01:07:22;19.60;78.90
41628;DHT22;27321;50.816;6.054;2023-07-24T01:10:23;19.60;78.50
41628;DHT22;27321;50.816;6.054;2023-07-24T01:13:28;19.60;79.00
41628;DHT22;27321;50.816;6.054;2023-07-24T01:16:37;19.60;78.70
41628;DHT22;27321;50.816;6.054;2023-07-24T01:19:49;19.60;78.90
41628;DHT22;27321;50.816;6.054;2023-07-24T01:23:29;19.70;78.80
41628;DHT22;27321;50.816;6.054;2023-07-24T01:26:49;19.70;78.70
41628;DHT22;27321;50.816;6.054;2023-07-24T01:29:50;19.70;78.70
41628;DHT22;27321;50.816;6.054;2023-07-24T01:32:51;19.70;78.40
41628;DHT22;27321;50.816;6.054;2023-07-24T01:35:59;19.70;78.40
41628;DHT22;27321;50.816;6.054;2023-07-24T01:39:01;19.70;78.30
41628;DHT22;27321;50.816;6.054;2023-07-24T01:42:02;19.70;78.30
41628;DHT22;27321;50.816;6.054;2023-07-24T01:45:04;19.70;78.40
41628;DHT22;27321;50.816;6.054;2023-07-24T01:48:07;19.70;78.30
41628;DHT22;27321;50.816;6.054;2023-07-24T01:51:08;19.80;78.20
41628;DHT22;27321;50.816;6.054;2023-07-24T01:54:09;19.80;78.00
41628;DHT22;27321;50.816;6.054;2023-07-24T01:57:10;19.80;78.10
41628;DHT22;27321;50.816;6.054;2023-07-24T02:00:11;19.80;78.40
41628;DHT22;27321;50.816;6.054;2023-07-24T02:03:13;19.80;78.70
41628;DHT22;27321;50.816;6.054;2023-07-24T02:06:14;19.80;78.90
41628;DHT22;27321;50.816;6.054;2023-07-24T02:09:18;19.80;79.20
41628;DHT22;27321;50.816;6.054;2023-07-24T02:12:19;19.80;79.30
41628;DHT22;27321;50.816;6.054;2023-07-24T02:15:20;19.70;79.40
41628;DHT22;27321;50.816;6.054;2023-07-24T02:18:21;19.60;79.60
41628;DHT22;27321;50.816;6.054;2023-07-24T02:21:23;19.60;79.70
41628;DHT22;27321;50.816;6.054;2023-07-24T02:24:24;19.60;79.90
41628;DHT22;27321;50.816;6.054;2023-07-24T02:27:31;19.60;79.90
41628;DHT22;27321;50.816;6.054;2023-07-24T02:30:38;19.60;79.80
41628;DHT22;27321;50.816;6.054;2023-07-24T02:33:40;19.70;79.80
41628;DHT22;27321;50.816;6.054;2023-07-24T02:36:41;19.60;79.80
41628;DHT22;27321;50.816;6.054;2023-07-24T02:39:43;19.60;79.80
41628;DHT22;27321;50.816;6.054;2023-07-24T02:42:47;19.60;79.50
41628;DHT22;27321;50.816;6.054;2023-07-24T02:45:48;19.60;79.70
41628;DHT22;27321;50.816;6.054;2023-07-24T02:48:51;19.60;79.60
41628;DHT22;27321;50.816;6.054;2023-07-24T02:51:53;19.60;79.60
41628;DHT22;27321;50.816;6.054;2023-07-24T02:54:54;19.50;79.50
41628;DHT22;27321;50.816;6.054;2023-07-24T02:57:55;19.50;79.60
41628;DHT22;27321;50.816;6.054;2023-07-24T03:01:03;19.50;79.60
41628;DHT22;27321;50.816;6.054;2023-07-24T03:04:08;19.40;79.60
41628;DHT22;27321;50.816;6.054;2023-07-24T03:07:09;19.40;79.70
41628;DHT22;27321;50.816;6.054;2023-07-24T03:10:10;19.40;80.10
41628;DHT22;27321;50.816;6.054;2023-07-24T03:13:11;19.40;79.90
41628;DHT22;27321;50.816;6.054;2023-07-24T03:16:12;19.40;79.80
41628;DHT22;27321;50.816;6.054;2023-07-24T03:19:13;19.30;79.90
41628;DHT22;27321;50.816;6.054;2023-07-24T03:22:15;19.30;79.80
41628;DHT22;27321;50.816;6.054;2023-07-24T03:25:18;19.30;80.00
41628;DHT22;27321;50.816;6.054;2023-07-24T03:28:20;19.30;80.00
41628;DHT22;27321;50.816;6.054;2023-07-24T03:31:21;19.40;80.00
41628;DHT22;27321;50.816;6.054;2023-07-24T03:34:22;19.40;79.80
41628;DHT22;27321;50.816;6.054;2023-07-24T03:37:23;19.50;79.70
41628;DHT22;27321;50.816;6.054;2023-07-24T03:40:24;19.50;79.60
41628;DHT22;27321;50.816;6.054;2023-07-24T03:43:26;19.50;79.60
41628;DHT22;27321;50.816;6.054;2023-07-24T03:46:27;19.50;79.40
41628;DHT22;27321;50.816;6.054;2023-07-24T03:49:28;19.50;79.10
41628;DHT22;27321;50.816;6.054;2023-07-24T03:52:29;19.50;79.10
41628;DHT22;27321;50.816;6.054;2023-07-24T03:55:30;19.50;79.00
41628;DHT22;27321;50.816;6.054;2023-07-24T03:58:31;19.50;79.00
41628;DHT22;27321;50.816;6.054;2023-07-24T04:01:32;19.50;78.90
41628;DHT22;27321;50.816;6.054;2023-07-24T04:04:33;19.50;78.90
41628;DHT22;27321;50.816;6.054;2023-07-24T04:07:34;19.50;78.60
41628;DHT22;27321;50.816;6.054;2023-07-24T04:10:36;19.50;78.60
41628;DHT22;27321;50.816;6.054;2023-07-24T04:13:37;19.50;78.70
41628;DHT22;27321;50.816;6.054;2023-07-24T04:16:38;19.40;78.70
41628;DHT22;27321;50.816;6.054;2023-07-24T04:19:39;19.40;78.40
41628;DHT22;27321;50.816;6.054;2023-07-24T04:22:40;19.40;78.40
41628;DHT22;27321;50.816;6.054;2023-07-24T04:25:41;19.40;78.50
41628;DHT22;27321;50.816;6.054;2023-07-24T04:28:42;19.40;77.80
41628;DHT22;27321;50.816;6.054;2023-07-24T04:31:44;19.30;78.30
41628;DHT22;27321;50.816;6.054;2023-07-24T04:34:45;19.30;78.00
41628;DHT22;27321;50.816;6.054;2023-07-24T04:37:46;19.30;78.00
41628;DHT22;27321;50.816;6.054;2023-07-24T04:40:47;19.30;77.80
41628;DHT22;27321;50.816;6.054;2023-07-24T04:48:05;19.30;77.70
41628;DHT22;27321;50.816;6.054;2023-07-24T04:51:06;19.20;77.90
41628;DHT22;27321;50.816;6.054;2023-07-24T04:54:07;19.20;77.80
41628;DHT22;27321;50.816;6.054;2023-07-24T04:57:08;19.20;77.70
41628;DHT22;27321;50.816;6.054;2023-07-24T05:00:12;19.20;77.90
41628;DHT22;27321;50.816;6.054;2023-07-24T05:03:14;19.20;77.90
41628;DHT22;27321;50.816;6.054;2023-07-24T05:06:17;19.20;77.70
41628;DHT22;27321;50.816;6.054;2023-07-24T05:09:18;19.30;77.70
41628;DHT22;27321;50.816;6.054;2023-07-24T05:17:19;19.40;77.40
41628;DHT22;27321;50.816;6.054;2023-07-24T05:20:21;19.40;77.20
41628;DHT22;27321;50.816;6.054;2023-07-24T05:23:23;19.40;77.20
41628;DHT22;27321;50.816;6.054;2023-07-24T05:26:24;19.50;76.80
41628;DHT22;27321;50.816;6.054;2023-07-24T05:29:25;19.40;76.50
41628;DHT22;27321;50.816;6.054;2023-07-24T05:32:26;19.40;76.70
41628;DHT22;27321;50.816;6.054;2023-07-24T05:35:27;19.40;76.60
41628;DHT22;27321;50.816;6.054;2023-07-24T05:38:28;19.50;76.20
41628;DHT22;27321;50.816;6.054;2023-07-24T05:41:29;19.40;76.50
41628;DHT22;27321;50.816;6.054;2023-07-24T05:44:30;19.40;76.60
41628;DHT22;27321;50.816;6.054;2023-07-24T05:47:32;19.50;76.30
41628;DHT22;27321;50.816;6.054;2023-07-24T05:50:33;19.50;76.50
41628;DHT22;27321;50.816;6.054;2023-07-24T05:53:37;19.50;76.40
41628;DHT22;27321;50.816;6.054;2023-07-24T05:56:38;19.60;76.40
41628;DHT22;27321;50.816;6.054;2023-07-24T05:59:39;19.60;76.40
41628;DHT22;27321;50.816;6.054;2023-07-24T06:02:40;19.70;76.20
41628;DHT22;27321;50.816;6.054;2023-07-24T06:05:42;19.70;76.20
41628;DHT22;27321;50.816;6.054;2023-07-24T06:08:43;19.80;76.00
41628;DHT22;27321;50.816;6.054;2023-07-24T06:11:44;19.80;74.90
41628;DHT22;27321;50.816;6.054;2023-07-24T06:14:45;19.80;75.20
41628;DHT22;27321;50.816;6.054;2023-07-24T06:17:46;19.80;75.40
41628;DHT22;27321;50.816;6.054;2023-07-24T06:20:52;19.90;75.00
41628;DHT22;27321;50.816;6.054;2023-07-24T06:23:54;20.00;74.90
41628;DHT22;27321;50.816;6.054;2023-07-24T06:26:55;19.90;74.10
41628;DHT22;27321;50.816;6.054;2023-07-24T06:29:56;19.90;73.90
41628;DHT22;27321;50.816;6.054;2023-07-24T06:32:57;20.00;74.10
41628;DHT22;27321;50.816;6.054;2023-07-24T06:35:58;20.00;73.50
41628;DHT22;27321;50.816;6.054;2023-07-24T06:38:59;19.90;73.90
41628;DHT22;27321;50.816;6.054;2023-07-24T06:42:00;19.90;74.00
41628;DHT22;27321;50.816;6.054;2023-07-24T06:45:01;20.00;74.20
41628;DHT22;27321;50.816;6.054;2023-07-24T06:48:02;20.00;74.50
41628;DHT22;27321;50.816;6.054;2023-07-24T06:51:03;20.00;74.60
41628;DHT22;27321;50.816;6.054;2023-07-24T06:54:05;19.90;74.60
41628;DHT22;27321;50.816;6.054;2023-07-24T06:57:06;19.90;74.80
41628;DHT22;27321;50.816;6.054;2023-07-24T07:00:07;19.90;74.60
41628;DHT22;27321;50.816;6.054;2023-07-24T07:03:12;19.90;74.80
41628;DHT22;27321;50.816;6.054;2023-07-24T07:06:13;19.90;74.80
41628;DHT22;27321;50.816;6.054;2023-07-24T07:09:14;19.90;74.90
41628;DHT22;27321;50.816;6.054;2023-07-24T07:12:15;20.00;75.00
41628;DHT22;27321;50.816;6.054;2023-07-24T07:15:16;20.10;74.80
41628;DHT22;27321;50.816;6.054;2023-07-24T07:18:17;20.10;74.50
41628;DHT22;27321;50.816;6.054;2023-07-24T07:21:18;20.10;74.30
41628;DHT22;27321;50.816;6.054;2023-07-24T07:24:19;20.10;74.40
41628;DHT22;27321;50.816;6.054;2023-07-24T07:27:20;20.10;74.50
41628;DHT22;27321;50.816;6.054;2023-07-24T07:30:21;20.10;74.10
41628;DHT22;27321;50.816;6.054;2023-07-24T07:33:22;20.10;74.00
41628;DHT22;27321;50.816;6.054;2023-07-24T07:36:25;20.10;74.00
41628;DHT22;27321;50.816;6.054;2023-07-24T07:39:26;20.10;74.30
41628;DHT22;27321;50.816;6.054;2023-07-24T07:42:27;20.10;73.90
41628;DHT22;27321;50.816;6.054;2023-07-24T07:45:28;20.20;73.80
41628;DHT22;27321;50.816;6.054;2023-07-24T07:48:29;20.20;73.90
41628;DHT22;27321;50.816;6.054;2023-07-24T07:51:30;20.30;74.20
41628;DHT22;27321;50.816;6.054;2023-07-24T07:54:31;20.40;73.90
41628;DHT22;27321;50.816;6.054;2023-07-24T07:57:36;20.60;74.00
41628;DHT22;27321;50.816;6.054;2023-07-24T08:00:38;20.50;73.00
41628;DHT22;27321;50.816;6.054;2023-07-24T08:03:40;20.60;72.50
41628;DHT22;27321;50.816;6.054;2023-07-24T08:06:42;20.60;72.90
41628;DHT22;27321;50.816;6.054;2023-07-24T08:09:43;20.70;72.80
41628;DHT22;27321;50.816;6.054;2023-07-24T08:12:46;20.80;71.90
41628;DHT22;27321;50.816;6.054;2023-07-24T08:15:48;20.90;72.20
41628;DHT22;27321;50.816;6.054;2023-07-24T08:18:50;21.00;71.40
41628;DHT22;27321;50.816;6.054;2023-07-24T08:21:51;21.00;71.30
41628;DHT22;27321;50.816;6.054;2023-07-24T08:24:52;21.10;71.10
41628;DHT22;27321;50.816;6.054;2023-07-24T08:27:53;21.10;70.80
41628;DHT22;27321;50.816;6.054;2023-07-24T08:30:58;21.20;70.80
41628;DHT22;27321;50.816;6.054;2023-07-24T08:33:59;21.20;70.60
41628;DHT22;27321;50.816;6.054;2023-07-24T08:37:01;21.30;70.70
41628;DHT22;27321;50.816;6.054;2023-07-24T08:40:02;21.40;70.70
41628;DHT22;27321;50.816;6.054;2023-07-24T08:43:03;21.40;70.00
41628;DHT22;27321;50.816;6.054;2023-07-24T08:46:05;21.50;69.00
41628;DHT22;27321;50.816;6.054;2023-07-24T08:49:11;21.50;69.20
41628;DHT22;27321;50.816;6.054;2023-07-24T08:52:14;21.60;69.10
41628;DHT22;27321;50.816;6.054;2023-07-24T08:55:15;21.70;69.00
41628;DHT22;27321;50.816;6.054;2023-07-24T08:58:16;21.80;68.90
41628;DHT22;27321;50.816;6.054;2023-07-24T09:01:18;21.80;68.20
41628;DHT22;27321;50.816;6.054;2023-07-24T09:04:19;21.90;68.90
41628;DHT22;27321;50.816;6.054;2023-07-24T09:07:20;22.00;68.60
41628;DHT22;27321;50.816;6.054;2023-07-24T09:10:25;22.00;67.80
41628;DHT22;27321;50.816;6.054;2023-07-24T09:13:27;22.00;68.00
41628;DHT22;27321;50.816;6.054;2023-07-24T09:16:28;22.00;68.50
41628;DHT22;27321;50.816;6.054;2023-07-24T09:19:30;21.90;68.30
41628;DHT22;27321;50.816;6.054;2023-07-24T09:22:31;21.80;68.30
41628;DHT22;27321;50.816;6.054;2023-07-24T09:25:33;21.80;68.60
41628;DHT22;27321;50.816;6.054;2023-07-24T09:28:35;21.70;68.80
41628;DHT22;27321;50.816;6.054;2023-07-24T09:31:36;21.70;68.90
41628;DHT22;27321;50.816;6.054;2023-07-24T09:34:42;21.60;68.90
41628;DHT22;27321;50.816;6.054;2023-07-24T09:37:43;21.70;69.00
41628;DHT22;27321;50.816;6.054;2023-07-24T09:40:45;21.80;69.40
41628;DHT22;27321;50.816;6.054;2023-07-24T09:43:47;22.00;69.40
41628;DHT22;27321;50.816;6.054;2023-07-24T09:46:49;22.10;69.30
41628;DHT22;27321;50.816;6.054;2023-07-24T09:49:51;22.30;69.00
41628;DHT22;27321;50.816;6.054;2023-07-24T09:52:53;22.50;69.00
41628;DHT22;27321;50.816;6.054;2023-07-24T09:56:03;22.50;67.30
41628;DHT22;27321;50.816;6.054;2023-07-24T09:59:06;22.50;68.00
41628;DHT22;27321;50.816;6.054;2023-07-24T10:02:08;22.60;67.50
41628;DHT22;27321;50.816;6.054;2023-07-24T10:05:12;22.70;67.10
41628;DHT22;27321;50.816;6.054;2023-07-24T10:08:17;22.80;67.40
41628;DHT22;27321;50.816;6.054;2023-07-24T10:11:22;23.00;67.30
41628;DHT22;27321;50.816;6.054;2023-07-24T10:14:25;23.10;67.70
41628;DHT22;27321;50.816;6.054;2023-07-24T10:17:37;23.30;65.90
41628;DHT22;27321;50.816;6.054;2023-07-24T10:20:41;23.30;65.20
41628;DHT22;27321;50.816;6.054;2023-07-24T10:23:44;23.20;65.70
41628;DHT22;27321;50.816;6.054;2023-07-24T10:26:48;23.10;66.00
41628;DHT22;27321;50.816;6.054;2023-07-24T10:30:00;23.00;66.40
41628;DHT22;27321;50.816;6.054;2023-07-24T10:33:11;22.80;66.90
41628;DHT22;27321;50.816;6.054;2023-07-24T10:36:19;22.60;68.20
41628;DHT22;27321;50.816;6.054;2023-07-24T10:39:22;22.40;70.60
41628;DHT22;27321;50.816;6.054;2023-07-24T10:42:23;22.30;72.70
41628;DHT22;27321;50.816;6.054;2023-07-24T10:45:25;22.00;74.20
41628;DHT22;27321;50.816;6.054;2023-07-24T10:48:27;21.80;75.30
41628;DHT22;27321;50.816;6.054;2023-07-24T10:51:30;21.60;76.30
41628;DHT22;27321;50.816;6.054;2023-07-24T10:54:35;21.50;76.70
41628;DHT22;27321;50.816;6.054;2023-07-24T10:57:36;21.50;77.20
41628;DHT22;27321;50.816;6.054;2023-07-24T11:00:41;21.50;77.50
41628;DHT22;27321;50.816;6.054;2023-07-24T11:03:43;21.60;77.60
41628;DHT22;27321;50.816;6.054;2023-07-24T11:06:45;21.80;76.90
41628;DHT22;27321;50.816;6.054;2023-07-24T11:09:46;21.70;76.30
41628;DHT22;27321;50.816;6.054;2023-07-24T11:12:48;21.60;76.70
41628;DHT22;27321;50.816;6.054;2023-07-24T11:15:52;21.50;76.80
41628;DHT22;27321;50.816;6.054;2023-07-24T11:18:54;21.40;77.10
41628;DHT22;27321;50.816;6.054;2023-07-24T11:21:56;21.50;77.30
41628;DHT22;27321;50.816;6.054;2023-07-24T11:24:58;21.60;77.30
41628;DHT22;27321;50.816;6.054;2023-07-24T11:28:00;21.80;77.80
41628;DHT22;27321;50.816;6.054;2023-07-24T11:31:04;22.10;79.00
41628;DHT22;27321;50.816;6.054;2023-07-24T11:34:09;22.50;79.00
41628;DHT22;27321;50.816;6.054;2023-07-24T11:37:10;22.70;77.40
41628;DHT22;27321;50.816;6.054;2023-07-24T11:40:11;22.80;75.80
41628;DHT22;27321;50.816;6.054;2023-07-24T11:43:22;22.40;72.10
41628;DHT22;27321;50.816;6.054;2023-07-24T11:46:29;22.20;70.70
41628;DHT22;27321;50.816;6.054;2023-07-24T11:49:34;22.10;72.10
41628;DHT22;27321;50.816;6.054;2023-07-24T11:52:40;22.00;71.90
41628;DHT22;27321;50.816;6.054;2023-07-24T11:55:47;22.00;70.90
41628;DHT22;27321;50.816;6.054;2023-07-24T11:58:49;21.90;71.20
41628;DHT22;27321;50.816;6.054;2023-07-24T12:01:51;21.90;71.70
41628;DHT22;27321;50.816;6.054;2023-07-24T12:04:59;21.90;72.00
41628;DHT22;27321;50.816;6.054;2023-07-24T12:08:01;21.80;71.90
41628;DHT22;27321;50.816;6.054;2023-07-24T12:11:02;22.10;73.10
41628;DHT22;27321;50.816;6.054;2023-07-24T12:14:04;22.30;72.40
41628;DHT22;27321;50.816;6.054;2023-07-24T12:17:06;22.30;71.00
41628;DHT22;27321;50.816;6.054;2023-07-24T12:20:10;22.50;72.30
41628;DHT22;27321;50.816;6.054;2023-07-24T12:23:15;22.60;70.90
41628;DHT22;27321;50.816;6.054;2023-07-24T12:26:27;22.80;71.40
41628;DHT22;27321;50.816;6.054;2023-07-24T12:29:38;22.90;71.00
41628;DHT22;27321;50.816;6.054;2023-07-24T12:32:42;23.00;69.90
41628;DHT22;27321;50.816;6.054;2023-07-24T12:35:49;23.00;69.60
41628;DHT22;27321;50.816;6.054;2023-07-24T12:38:52;23.00;70.10
41628;DHT22;27321;50.816;6.054;2023-07-24T12:41:53;22.90;70.00
41628;DHT22;27321;50.816;6.054;2023-07-24T12:44:56;22.90;69.70
41628;DHT22;27321;50.816;6.054;2023-07-24T12:47:59;22.80;69.40
41628;DHT22;27321;50.816;6.054;2023-07-24T12:51:00;22.70;68.80
41628;DHT22;27321;50.816;6.054;2023-07-24T12:54:01;22.60;69.00
41628;DHT22;27321;50.816;6.054;2023-07-24T12:57:03;22.50;69.20
41628;DHT22;27321;50.816;6.054;2023-07-24T13:00:05;22.40;70.10
41628;DHT22;27321;50.816;6.054;2023-07-24T13:03:07;22.30;70.30
41628;DHT22;27321;50.816;6.054;2023-07-24T13:06:08;22.30;70.50
41628;DHT22;27321;50.816;6.054;2023-07-24T13:09:10;22.30;70.20
41628;DHT22;27321;50.816;6.054;2023-07-24T13:12:11;22.30;70.10
41628;DHT22;27321;50.816;6.054;2023-07-24T13:15:12;22.10;70.50
41628;DHT22;27321;50.816;6.054;2023-07-24T13:18:16;22.10;71.30
41628;DHT22;27321;50.816;6.054;2023-07-24T13:21:21;22.10;71.40
41628;DHT22;27321;50.816;6.054;2023-07-24T13:24:28;22.20;71.30
41628;DHT22;27321;50.816;6.054;2023-07-24T13:27:29;22.10;70.70
41628;DHT22;27321;50.816;6.054;2023-07-24T13:30:32;22.00;71.00
41628;DHT22;27321;50.816;6.054;2023-07-24T13:33:32;22.00;70.90
41628;DHT22;27321;50.816;6.054;2023-07-24T13:36:33;22.00;71.00
41628;DHT22;27321;50.816;6.054;2023-07-24T13:39:35;21.90;71.20
41628;DHT22;27321;50.816;6.054;2023-07-24T13:42:36;22.00;71.50
41628;DHT22;27321;50.816;6.054;2023-07-24T13:45:40;21.90;72.10
41628;DHT22;27321;50.816;6.054;2023-07-24T13:48:41;22.00;72.70
41628;DHT22;27321;50.816;6.054;2023-07-24T13:51:44;22.10;72.80
41628;DHT22;27321;50.816;6.054;2023-07-24T13:54:45;22.10;72.70
41628;DHT22;27321;50.816;6.054;2023-07-24T13:57:50;22.10;72.10
41628;DHT22;27321;50.816;6.054;2023-07-24T14:00:54;22.10;72.20
41628;DHT22;27321;50.816;6.054;2023-07-24T14:03:56;22.20;72.30
41628;DHT22;27321;50.816;6.054;2023-07-24T14:06:58;22.20;72.20
41628;DHT22;27321;50.816;6.054;2023-07-24T14:09:59;22.20;71.70
41628;DHT22;27321;50.816;6.054;2023-07-24T14:13:00;22.10;71.70
41628;DHT22;27321;50.816;6.054;2023-07-24T14:16:05;22.10;71.80
41628;DHT22;27321;50.816;6.054;2023-07-24T14:19:06;22.10;70.90
41628;DHT22;27321;50.816;6.054;2023-07-24T14:22:08;22.20;71.60
41628;DHT22;27321;50.816;6.054;2023-07-24T14:25:10;22.10;70.50
41628;DHT22;27321;50.816;6.054;2023-07-24T14:28:11;22.20;70.30
41628;DHT22;27321;50.816;6.054;2023-07-24T14:31:17;22.20;69.50
41628;DHT22;27321;50.816;6.054;2023-07-24T14:34:19;22.20;68.70
41628;DHT22;27321;50.816;6.054;2023-07-24T14:37:20;22.30;68.20
41628;DHT22;27321;50.816;6.054;2023-07-24T14:40:22;22.30;67.60
41628;DHT22;27321;50.816;6.054;2023-07-24T14:43:23;22.40;67.10
41628;DHT22;27321;50.816;6.054;2023-07-24T14:46:24;22.30;64.80
41628;DHT22;27321;50.816;6.054;2023-07-24T14:49:25;22.30;64.50
41628;DHT22;27321;50.816;6.054;2023-07-24T14:52:27;22.20;64.30
41628;DHT22;27321;50.816;6.054;2023-07-24T14:55:28;22.20;63.40
41628;DHT22;27321;50.816;6.054;2023-07-24T14:58:30;22.20;63.20
41628;DHT22;27321;50.816;6.054;2023-07-24T15:01:31;22.30;63.80
41628;DHT22;27321;50.816;6.054;2023-07-24T15:04:32;22.30;63.10
41628;DHT22;27321;50.816;6.054;2023-07-24T15:07:34;22.20;63.30
41628;DHT22;27321;50.816;6.054;2023-07-24T15:10:36;22.20;62.20
41628;DHT22;27321;50.816;6.054;2023-07-24T15:13:37;22.20;62.50
41628;DHT22;27321;50.816;6.054;2023-07-24T15:16:38;22.30;62.90
41628;DHT22;27321;50.816;6.054;2023-07-24T15:19:42;22.30;62.40
41628;DHT22;27321;50.816;6.054;2023-07-24T15:22:44;22.40;61.90
41628;DHT22;27321;50.816;6.054;2023-07-24T15:25:45;22.50;61.60
41628;DHT22;27321;50.816;6.054;2023-07-24T15:28:46;22.50;60.90
41628;DHT22;27321;50.816;6.054;2023-07-24T15:31:47;22.40;60.60
41628;DHT22;27321;50.816;6.054;2023-07-24T15:34:49;22.50;60.60
41628;DHT22;27321;50.816;6.054;2023-07-24T15:37:50;22.40;60.40
41628;DHT22;27321;50.816;6.054;2023-07-24T15:40:52;22.30;60.80
41628;DHT22;27321;50.816;6.054;2023-07-24T15:43:53;22.40;59.40
41628;DHT22;27321;50.816;6.054;2023-07-24T15:46:54;22.40;59.90
41628;DHT22;27321;50.816;6.054;2023-07-24T15:49:58;22.40;61.40
41628;DHT22;27321;50.816;6.054;2023-07-24T15:53:02;22.60;62.60
41628;DHT22;27321;50.816;6.054;2023-07-24T15:56:03;22.80;61.60
41628;DHT22;27321;50.816;6.054;2023-07-24T15:59:07;22.80;58.70
41628;DHT22;27321;50.816;6.054;2023-07-24T16:02:09;22.60;58.20
41628;DHT22;27321;50.816;6.054;2023-07-24T16:05:21;22.60;60.00
41628;DHT22;27321;50.816;6.054;2023-07-24T16:08:22;22.50;61.50
41628;DHT22;27321;50.816;6.054;2023-07-24T16:11:23;22.60;61.90
41628;DHT22;27321;50.816;6.054;2023-07-24T16:14:24;22.80;61.90
41628;DHT22;27321;50.816;6.054;2023-07-24T16:17:25;22.90;61.50
41628;DHT22;27321;50.816;6.054;2023-07-24T16:20:29;22.80;58.70
41628;DHT22;27321;50.816;6.054;2023-07-24T16:23:30;22.80;57.60
41628;DHT22;27321;50.816;6.054;2023-07-24T16:26:33;22.90;57.80
41628;DHT22;27321;50.816;6.054;2023-07-24T16:29:34;23.00;58.70
41628;DHT22;27321;50.816;6.054;2023-07-24T16:32:36;23.10;60.60
41628;DHT22;27321;50.816;6.054;2023-07-24T16:35:37;23.10;60.90
41628;DHT22;27321;50.816;6.054;2023-07-24T16:38:38;23.10;60.70
41628;DHT22;27321;50.816;6.054;2023-07-24T16:41:39;23.00;57.70
41628;DHT22;27321;50.816;6.054;2023-07-24T16:44:41;22.90;56.30
41628;DHT22;27321;50.816;6.054;2023-07-24T16:47:42;22.80;56.90
41628;DHT22;27321;50.816;6.054;2023-07-24T16:50:43;22.60;57.00
41628;DHT22;27321;50.816;6.054;2023-07-24T16:53:44;22.40;57.40
41628;DHT22;27321;50.816;6.054;2023-07-24T16:56:44;22.20;57.60
41628;DHT22;27321;50.816;6.054;2023-07-24T16:59:45;22.10;58.60
41628;DHT22;27321;50.816;6.054;2023-07-24T17:02:46;22.00;57.60
41628;DHT22;27321;50.816;6.054;2023-07-24T17:05:47;21.60;55.60
41628;DHT22;27321;50.816;6.054;2023-07-24T17:08:48;21.30;58.20
41628;DHT22;27321;50.816;6.054;2023-07-24T17:11:49;21.10;59.30
41628;DHT22;27321;50.816;6.054;2023-07-24T17:14:50;21.00;60.50
41628;DHT22;27321;50.816;6.054;2023-07-24T17:17:52;20.90;61.60
41628;DHT22;27321;50.816;6.054;2023-07-24T17:20:53;20.80;62.20
41628;DHT22;27321;50.816;6.054;2023-07-24T17:23:54;20.70;62.10
41628;DHT22;27321;50.816;6.054;2023-07-24T17:26:55;20.60;62.30
41628;DHT22;27321;50.816;6.054;2023-07-24T17:29:56;20.60;61.80
41628;DHT22;27321;50.816;6.054;2023-07-24T17:32:57;20.60;63.20
41628;DHT22;27321;50.816;6.054;2023-07-24T17:36:00;20.60;63.70
41628;DHT22;27321;50.816;6.054;2023-07-24T17:39:01;20.60;63.60
41628;DHT22;27321;50.816;6.054;2023-07-24T17:42:03;20.70;63.80
41628;DHT22;27321;50.816;6.054;2023-07-24T17:45:05;20.70;63.40
41628;DHT22;27321;50.816;6.054;2023-07-24T17:48:06;20.70;63.90
41628;DHT22;27321;50.816;6.054;2023-07-24T17:51:07;20.70;63.80
41628;DHT22;27321;50.816;6.054;2023-07-24T17:54:08;20.60;63.40
41628;DHT22;27321;50.816;6.054;2023-07-24T17:57:10;20.60;63.70
41628;DHT22;27321;50.816;6.054;2023-07-24T18:00:11;20.70;63.50
41628;DHT22;27321;50.816;6.054;2023-07-24T18:03:13;20.60;63.90
41628;DHT22;27321;50.816;6.054;2023-07-24T18:06:14;20.70;64.00
41628;DHT22;27321;50.816;6.054;2023-07-24T18:09:15;20.80;63.70
41628;DHT22;27321;50.816;6.054;2023-07-24T18:12:16;20.90;64.00
41628;DHT22;27321;50.816;6.054;2023-07-24T18:15:17;20.90;63.00
41628;DHT22;27321;50.816;6.054;2023-07-24T18:18:18;20.80;63.10
41628;DHT22;27321;50.816;6.054;2023-07-24T18:21:19;20.70;63.40
41628;DHT22;27321;50.816;6.054;2023-07-24T18:24:20;20.70;63.20
41628;DHT22;27321;50.816;6.054;2023-07-24T18:27:21;20.60;62.60
41628;DHT22;27321;50.816;6.054;2023-07-24T18:30:22;20.50;63.30
41628;DHT22;27321;50.816;6.054;2023-07-24T18:33:29;20.50;63.50
41628;DHT22;27321;50.816;6.054;2023-07-24T18:36:30;20.50;63.80
41628;DHT22;27321;50.816;6.054;2023-07-24T18:39:32;20.50;64.30
41628;DHT22;27321;50.816;6.054;2023-07-24T18:42:33;20.50;64.30
41628;DHT22;27321;50.816;6.054;2023-07-24T18:45:34;20.50;64.00
41628;DHT22;27321;50.816;6.054;2023-07-24T18:48:38;20.50;64.20
41628;DHT22;27321;50.816;6.054;2023-07-24T18:55:02;20.50;64.60
41628;DHT22;27321;50.816;6.054;2023-07-24T18:58:03;20.50;64.70
41628;DHT22;27321;50.816;6.054;2023-07-24T19:01:05;20.40;64.90
41628;DHT22;27321;50.816;6.054;2023-07-24T19:04:06;20.30;65.50
41628;DHT22;27321;50.816;6.054;2023-07-24T19:07:08;20.30;65.80
41628;DHT22;27321;50.816;6.054;2023-07-24T19:10:09;20.30;66.10
41628;DHT22;27321;50.816;6.054;2023-07-24T19:13:11;20.30;66.50
41628;DHT22;27321;50.816;6.054;2023-07-24T19:16:12;20.30;66.50
41628;DHT22;27321;50.816;6.054;2023-07-24T19:19:13;20.30;66.90
41628;DHT22;27321;50.816;6.054;2023-07-24T19:22:17;20.30;67.00